sensor_id;sensor_type;location;lat;lon;timestamp;temperature;humidity
26964;DHT22;14521;48.148;-1.656;2023-03-14T00:00:22;19.20;91.80
26964;DHT22;14521;48.148;-1.656;2023-03-14T00:03:44;19.20;91.70
26964;DHT22;14521;48.148;-1.656;2023-03-14T00:07:06;19.20;91.60
26964;DHT22;14521;48.148;-1.656;2023-03-14T00:10:28;19.20;91.50
26964;DHT22;14521;48.148;-1.656;2023-03-14T00:13:51;19.20;91.50
26964;DHT22;14521;48.148;-1.656;2023-03-14T00:17:13;19.20;91.90
26964;DHT22;14521;48.148;-1.656;2023-03-14T00:20:35;19.20;91.50
26964;DHT22;14521;48.148;-1.656;2023-03-14T00:23:57;19.20;91.40
26964;DHT22;14521;48.148;-1.656;2023-03-14T00:27:20;19.20;91.40
26964;DHT22;14521;48.148;-1.656;2023-03-14T00:30:42;19.20;91.40
26964;DHT22;14521;48.148;-1.656;2023-03-14T00:34:04;19.20;91.40
26964;DHT22;14521;48.148;-1.656;2023-03-14T00:37:27;19.10;91.40
26964;DHT22;14521;48.148;-1.656;2023-03-14T00:40:49;19.10;91.40
26964;DHT22;14521;48.148;-1.656;2023-03-14T00:44:11;19.10;91.30
26964;DHT22;14521;48.148;-1.656;2023-03-14T00:47:34;19.10;91.30
26964;DHT22;14521;48.148;-1.656;2023-03-14T00:50:56;19.10;91.30
26964;DHT22;14521;48.148;-1.656;2023-03-14T00:54:19;19.10;91.20
26964;DHT22;14521;48.148;-1.656;2023-03-14T00:57:41;19.10;91.20
26964;DHT22;14521;48.148;-1.656;2023-03-14T01:01:12;19.10;91.20
26964;DHT22;14521;48.148;-1.656;2023-03-14T01:13:47;19.10;91.30
26964;DHT22;14521;48.148;-1.656;2023-03-14T01:17:10;19.10;91.30
26964;DHT22;14521;48.148;-1.656;2023-03-14T01:20:32;19.10;91.30
26964;DHT22;14521;48.148;-1.656;2023-03-14T01:23:55;19.10;91.30
26964;DHT22;14521;48.148;-1.656;2023-03-14T01:27:17;19.00;91.30
26964;DHT22;14521;48.148;-1.656;2023-03-14T01:30:39;19.10;91.20
26964;DHT22;14521;48.148;-1.656;2023-03-14T01:34:01;19.00;91.10
26964;DHT22;14521;48.148;-1.656;2023-03-14T01:37:24;19.00;91.20
26964;DHT22;14521;48.148;-1.656;2023-03-14T01:40:48;19.10;91.30
26964;DHT22;14521;48.148;-1.656;2023-03-14T01:44:11;19.00;91.20
26964;DHT22;14521;48.148;-1.656;2023-03-14T01:47:33;19.00;91.10
26964;DHT22;14521;48.148;-1.656;2023-03-14T01:50:55;19.00;91.10
26964;DHT22;14521;48.148;-1.656;2023-03-14T01:54:23;19.00;91.10
26964;DHT22;14521;48.148;-1.656;2023-03-14T01:57:50;19.00;91.20
26964;DHT22;14521;48.148;-1.656;2023-03-14T02:01:16;19.00;91.10
26964;DHT22;14521;48.148;-1.656;2023-03-14T02:04:39;19.00;91.00
26964;DHT22;14521;48.148;-1.656;2023-03-14T02:08:02;19.00;91.00
26964;DHT22;14521;48.148;-1.656;2023-03-14T02:11:34;19.00;91.00
26964;DHT22;14521;48.148;-1.656;2023-03-14T02:15:01;19.00;91.00
26964;DHT22;14521;48.148;-1.656;2023-03-14T02:18:43;19.00;91.00
26964;DHT22;14521;48.148;-1.656;2023-03-14T02:22:28;19.00;90.90
26964;DHT22;14521;48.148;-1.656;2023-03-14T02:25:57;19.00;90.80
26964;DHT22;14521;48.148;-1.656;2023-03-14T02:29:22;19.00;90.90
26964;DHT22;14521;48.148;-1.656;2023-03-14T02:32:46;19.00;90.90
26964;DHT22;14521;48.148;-1.656;2023-03-14T02:36:10;19.00;90.80
26964;DHT22;14521;48.148;-1.656;2023-03-14T02:39:38;19.00;90.80
26964;DHT22;14521;48.148;-1.656;2023-03-14T02:43:01;18.90;90.80
26964;DHT22;14521;48.148;-1.656;2023-03-14T02:46:25;18.90;90.70
26964;DHT22;14521;48.148;-1.656;2023-03-14T02:49:47;19.00;90.70
26964;DHT22;14521;48.148;-1.656;2023-03-14T02:53:11;18.90;90.70
26964;DHT22;14521;48.148;-1.656;2023-03-14T02:56:33;18.90;90.70
26964;DHT22;14521;48.148;-1.656;2023-03-14T03:00:00;18.90;90.70
26964;DHT22;14521;48.148;-1.656;2023-03-14T03:03:27;18.90;90.70
26964;DHT22;14521;48.148;-1.656;2023-03-14T03:06:50;18.90;90.60
26964;DHT22;14521;48.148;-1.656;2023-03-14T03:10:12;18.90;90.70
26964;DHT22;14521;48.148;-1.656;2023-03-14T03:13:35;18.90;90.70
26964;DHT22;14521;48.148;-1.656;2023-03-14T03:16:59;18.90;90.60
26964;DHT22;14521;48.148;-1.656;2023-03-14T03:20:21;18.90;90.60
26964;DHT22;14521;48.148;-1.656;2023-03-14T03:23:43;18.90;90.50
26964;DHT22;14521;48.148;-1.656;2023-03-14T03:27:06;18.90;90.50
26964;DHT22;14521;48.148;-1.656;2023-03-14T03:30:28;18.80;90.40
26964;DHT22;14521;48.148;-1.656;2023-03-14T03:33:50;18.90;90.40
26964;DHT22;14521;48.148;-1.656;2023-03-14T03:37:13;18.90;90.40
26964;DHT22;14521;48.148;-1.656;2023-03-14T03:40:36;18.80;90.40
26964;DHT22;14521;48.148;-1.656;2023-03-14T03:43:59;18.90;90.50
26964;DHT22;14521;48.148;-1.656;2023-03-14T03:47:21;18.80;90.30
26964;DHT22;14521;48.148;-1.656;2023-03-14T03:50:44;18.90;90.40
26964;DHT22;14521;48.148;-1.656;2023-03-14T03:54:08;18.80;90.30
26964;DHT22;14521;48.148;-1.656;2023-03-14T03:57:32;18.80;90.30
26964;DHT22;14521;48.148;-1.656;2023-03-14T04:00:54;18.90;90.30
26964;DHT22;14521;48.148;-1.656;2023-03-14T04:04:16;18.80;90.20
26964;DHT22;14521;48.148;-1.656;2023-03-14T04:07:39;18.90;90.20
26964;DHT22;14521;48.148;-1.656;2023-03-14T04:11:02;18.80;90.20
26964;DHT22;14521;48.148;-1.656;2023-03-14T04:14:43;18.80;90.10
26964;DHT22;14521;48.148;-1.656;2023-03-14T04:18:12;18.90;90.10
26964;DHT22;14521;48.148;-1.656;2023-03-14T04:21:34;18.80;90.10
26964;DHT22;14521;48.148;-1.656;2023-03-14T04:24:56;18.80;90.00
26964;DHT22;14521;48.148;-1.656;2023-03-14T04:28:19;18.80;90.00
26964;DHT22;14521;48.148;-1.656;2023-03-14T04:31:41;18.80;90.00
26964;DHT22;14521;48.148;-1.656;2023-03-14T04:35:04;18.80;90.00
26964;DHT22;14521;48.148;-1.656;2023-03-14T04:38:26;18.80;90.00
26964;DHT22;14521;48.148;-1.656;2023-03-14T04:41:50;18.80;90.00
26964;DHT22;14521;48.148;-1.656;2023-03-14T04:45:12;18.70;90.10
26964;DHT22;14521;48.148;-1.656;2023-03-14T04:48:36;18.70;90.10
26964;DHT22;14521;48.148;-1.656;2023-03-14T04:52:01;18.70;90.10
26964;DHT22;14521;48.148;-1.656;2023-03-14T04:55:25;18.70;90.00
26964;DHT22;14521;48.148;-1.656;2023-03-14T04:58:50;18.70;90.00
26964;DHT22;14521;48.148;-1.656;2023-03-14T05:02:13;18.70;89.80
26964;DHT22;14521;48.148;-1.656;2023-03-14T05:06:03;18.80;89.80
26964;DHT22;14521;48.148;-1.656;2023-03-14T05:09:46;18.70;89.70
26964;DHT22;14521;48.148;-1.656;2023-03-14T05:13:08;18.70;89.80
26964;DHT22;14521;48.148;-1.656;2023-03-14T05:16:57;18.70;89.60
26964;DHT22;14521;48.148;-1.656;2023-03-14T05:20:31;18.70;89.60
26964;DHT22;14521;48.148;-1.656;2023-03-14T05:24:31;18.70;89.70
26964;DHT22;14521;48.148;-1.656;2023-03-14T05:27:56;18.70;89.40
26964;DHT22;14521;48.148;-1.656;2023-03-14T05:31:42;18.70;89.30
26964;DHT22;14521;48.148;-1.656;2023-03-14T05:35:17;18.70;89.40
26964;DHT22;14521;48.148;-1.656;2023-03-14T05:38:46;18.70;89.40
26964;DHT22;14521;48.148;-1.656;2023-03-14T05:42:23;18.80;89.20
26964;DHT22;14521;48.148;-1.656;2023-03-14T05:46:13;18.80;88.90
26964;DHT22;14521;48.148;-1.656;2023-03-14T05:49:55;18.80;88.70
26964;DHT22;14521;48.148;-1.656;2023-03-14T05:53:36;18.80;88.70
26964;DHT22;14521;48.148;-1.656;2023-03-14T05:57:16;18.80;88.50
26964;DHT22;14521;48.148;-1.656;2023-03-14T06:00:52;18.80;88.40
26964;DHT22;14521;48.148;-1.656;2023-03-14T06:04:28;18.80;88.30
26964;DHT22;14521;48.148;-1.656;2023-03-14T06:07:54;18.90;88.30
26964;DHT22;14521;48.148;-1.656;2023-03-14T06:11:16;18.90;88.20
26964;DHT22;14521;48.148;-1.656;2023-03-14T06:14:38;18.90;88.10
26964;DHT22;14521;48.148;-1.656;2023-03-14T06:18:01;18.90;87.30
26964;DHT22;14521;48.148;-1.656;2023-03-14T06:21:23;18.90;88.30
26964;DHT22;14521;48.148;-1.656;2023-03-14T06:24:46;18.80;88.20
26964;DHT22;14521;48.148;-1.656;2023-03-14T06:28:10;18.90;87.10
26964;DHT22;14521;48.148;-1.656;2023-03-14T06:31:33;18.90;86.60
26964;DHT22;14521;48.148;-1.656;2023-03-14T06:34:58;19.00;86.60
26964;DHT22;14521;48.148;-1.656;2023-03-14T06:38:24;19.10;86.70
26964;DHT22;14521;48.148;-1.656;2023-03-14T06:41:49;19.10;85.90
26964;DHT22;14521;48.148;-1.656;2023-03-14T06:45:13;19.10;87.40
26964;DHT22;14521;48.148;-1.656;2023-03-14T06:48:36;19.10;87.30
26964;DHT22;14521;48.148;-1.656;2023-03-14T06:51:58;19.10;88.00
26964;DHT22;14521;48.148;-1.656;2023-03-14T06:55:21;19.20;87.40
26964;DHT22;14521;48.148;-1.656;2023-03-14T06:58:45;19.20;87.70
26964;DHT22;14521;48.148;-1.656;2023-03-14T07:02:12;19.30;87.50
26964;DHT22;14521;48.148;-1.656;2023-03-14T07:05:37;19.30;88.00
26964;DHT22;14521;48.148;-1.656;2023-03-14T07:09:02;18.40;75.90
26964;DHT22;14521;48.148;-1.656;2023-03-14T07:12:26;18.50;83.80
26964;DHT22;14521;48.148;-1.656;2023-03-14T07:15:49;18.70;87.20
26964;DHT22;14521;48.148;-1.656;2023-03-14T07:19:11;18.80;86.90
26964;DHT22;14521;48.148;-1.656;2023-03-14T07:22:34;18.90;86.60
26964;DHT22;14521;48.148;-1.656;2023-03-14T07:25:56;19.00;86.40
26964;DHT22;14521;48.148;-1.656;2023-03-14T07:29:20;19.00;86.30
26964;DHT22;14521;48.148;-1.656;2023-03-14T07:32:43;19.00;86.90
26964;DHT22;14521;48.148;-1.656;2023-03-14T07:36:06;19.00;87.20
26964;DHT22;14521;48.148;-1.656;2023-03-14T07:39:29;19.00;87.10
26964;DHT22;14521;48.148;-1.656;2023-03-14T07:43:09;19.00;87.00
26964;DHT22;14521;48.148;-1.656;2023-03-14T07:46:39;19.10;86.60
26964;DHT22;14521;48.148;-1.656;2023-03-14T07:50:03;19.10;85.20
26964;DHT22;14521;48.148;-1.656;2023-03-14T07:53:25;19.20;85.10
26964;DHT22;14521;48.148;-1.656;2023-03-14T07:56:47;18.90;81.00
26964;DHT22;14521;48.148;-1.656;2023-03-14T08:00:10;18.50;81.50
26964;DHT22;14521;48.148;-1.656;2023-03-14T08:03:36;18.40;80.90
26964;DHT22;14521;48.148;-1.656;2023-03-14T08:06:58;18.20;80.70
26964;DHT22;14521;48.148;-1.656;2023-03-14T08:10:20;18.10;80.10
26964;DHT22;14521;48.148;-1.656;2023-03-14T08:13:44;18.00;79.60
26964;DHT22;14521;48.148;-1.656;2023-03-14T08:17:11;18.00;79.30
26964;DHT22;14521;48.148;-1.656;2023-03-14T08:20:33;18.00;79.30
26964;DHT22;14521;48.148;-1.656;2023-03-14T08:23:57;18.00;78.90
26964;DHT22;14521;48.148;-1.656;2023-03-14T08:27:19;18.00;78.00
26964;DHT22;14521;48.148;-1.656;2023-03-14T08:30:41;17.90;77.40
26964;DHT22;14521;48.148;-1.656;2023-03-14T08:34:08;17.90;77.50
26964;DHT22;14521;48.148;-1.656;2023-03-14T08:37:33;17.80;77.00
26964;DHT22;14521;48.148;-1.656;2023-03-14T08:40:56;17.90;76.70
26964;DHT22;14521;48.148;-1.656;2023-03-14T08:44:19;17.90;76.40
26964;DHT22;14521;48.148;-1.656;2023-03-14T08:47:42;17.90;75.90
26964;DHT22;14521;48.148;-1.656;2023-03-14T08:51:08;17.90;76.30
26964;DHT22;14521;48.148;-1.656;2023-03-14T08:54:31;17.90;75.80
26964;DHT22;14521;48.148;-1.656;2023-03-14T08:57:53;17.90;75.20
26964;DHT22;14521;48.148;-1.656;2023-03-14T09:01:15;17.90;75.20
26964;DHT22;14521;48.148;-1.656;2023-03-14T09:04:38;17.90;75.00
26964;DHT22;14521;48.148;-1.656;2023-03-14T09:08:00;17.90;75.20
26964;DHT22;14521;48.148;-1.656;2023-03-14T09:11:23;17.90;75.10
26964;DHT22;14521;48.148;-1.656;2023-03-14T09:14:45;17.90;75.20
26964;DHT22;14521;48.148;-1.656;2023-03-14T09:18:07;17.90;75.20
26964;DHT22;14521;48.148;-1.656;2023-03-14T09:21:29;17.80;74.00
26964;DHT22;14521;48.148;-1.656;2023-03-14T09:24:51;17.80;75.40
26964;DHT22;14521;48.148;-1.656;2023-03-14T09:28:13;17.80;74.90
26964;DHT22;14521;48.148;-1.656;2023-03-14T09:31:36;17.90;75.90
26964;DHT22;14521;48.148;-1.656;2023-03-14T09:34:58;18.00;76.20
26964;DHT22;14521;48.148;-1.656;2023-03-14T09:38:20;18.00;75.50
26964;DHT22;14521;48.148;-1.656;2023-03-14T09:41:43;18.00;75.60
26964;DHT22;14521;48.148;-1.656;2023-03-14T09:45:06;18.00;74.60
26964;DHT22;14521;48.148;-1.656;2023-03-14T09:48:32;17.90;75.50
26964;DHT22;14521;48.148;-1.656;2023-03-14T09:51:55;17.90;75.20
26964;DHT22;14521;48.148;-1.656;2023-03-14T09:55:19;17.80;75.50
26964;DHT22;14521;48.148;-1.656;2023-03-14T09:58:44;17.80;75.50
26964;DHT22;14521;48.148;-1.656;2023-03-14T10:02:28;17.90;75.20
26964;DHT22;14521;48.148;-1.656;2023-03-14T10:05:53;17.80;75.90
26964;DHT22;14521;48.148;-1.656;2023-03-14T10:09:20;17.80;75.20
26964;DHT22;14521;48.148;-1.656;2023-03-14T10:12:49;17.80;75.70
26964;DHT22;14521;48.148;-1.656;2023-03-14T10:16:16;17.70;75.80
26964;DHT22;14521;48.148;-1.656;2023-03-14T10:19:57;17.70;75.50
26964;DHT22;14521;48.148;-1.656;2023-03-14T10:23:23;17.70;75.90
26964;DHT22;14521;48.148;-1.656;2023-03-14T10:27:03;17.80;75.50
26964;DHT22;14521;48.148;-1.656;2023-03-14T10:30:30;17.70;74.40
26964;DHT22;14521;48.148;-1.656;2023-03-14T10:33:58;17.70;75.10
26964;DHT22;14521;48.148;-1.656;2023-03-14T10:37:21;17.60;74.50
26964;DHT22;14521;48.148;-1.656;2023-03-14T10:40:48;17.70;74.70
26964;DHT22;14521;48.148;-1.656;2023-03-14T10:44:11;17.70;73.90
26964;DHT22;14521;48.148;-1.656;2023-03-14T10:47:34;17.70;74.40
26964;DHT22;14521;48.148;-1.656;2023-03-14T10:54:22;17.80;74.10
26964;DHT22;14521;48.148;-1.656;2023-03-14T10:57:45;17.80;73.80
26964;DHT22;14521;48.148;-1.656;2023-03-14T11:11:48;17.90;72.90
26964;DHT22;14521;48.148;-1.656;2023-03-14T11:15:20;17.90;73.20
26964;DHT22;14521;48.148;-1.656;2023-03-14T11:22:14;17.90;71.90
26964;DHT22;14521;48.148;-1.656;2023-03-14T11:36:08;17.80;71.80
26964;DHT22;14521;48.148;-1.656;2023-03-14T11:39:38;17.90;71.50
26964;DHT22;14521;48.148;-1.656;2023-03-14T11:43:18;17.90;70.30
26964;DHT22;14521;48.148;-1.656;2023-03-14T11:46:43;17.80;70.30
26964;DHT22;14521;48.148;-1.656;2023-03-14T11:50:18;17.80;70.30
26964;DHT22;14521;48.148;-1.656;2023-03-14T11:53:45;17.80;70.60
26964;DHT22;14521;48.148;-1.656;2023-03-14T11:57:11;17.80;71.10
26964;DHT22;14521;48.148;-1.656;2023-03-14T12:00:34;17.80;69.60
26964;DHT22;14521;48.148;-1.656;2023-03-14T12:04:21;17.80;69.10
26964;DHT22;14521;48.148;-1.656;2023-03-14T12:07:43;17.80;68.80
26964;DHT22;14521;48.148;-1.656;2023-03-14T12:14:33;17.80;69.00
26964;DHT22;14521;48.148;-1.656;2023-03-14T12:17:56;17.70;68.00
26964;DHT22;14521;48.148;-1.656;2023-03-14T12:21:18;17.80;69.10
26964;DHT22;14521;48.148;-1.656;2023-03-14T12:24:44;17.80;68.50
26964;DHT22;14521;48.148;-1.656;2023-03-14T12:28:18;17.90;68.60
26964;DHT22;14521;48.148;-1.656;2023-03-14T12:31:42;17.90;67.90
26964;DHT22;14521;48.148;-1.656;2023-03-14T12:35:07;17.80;67.70
26964;DHT22;14521;48.148;-1.656;2023-03-14T12:42:14;17.90;67.30
26964;DHT22;14521;48.148;-1.656;2023-03-14T12:45:39;17.90;66.40
26964;DHT22;14521;48.148;-1.656;2023-03-14T12:52:45;17.80;66.20
26964;DHT22;14521;48.148;-1.656;2023-03-14T12:59:46;17.80;67.00
26964;DHT22;14521;48.148;-1.656;2023-03-14T13:03:19;17.80;67.30
26964;DHT22;14521;48.148;-1.656;2023-03-14T13:06:46;17.90;67.00
26964;DHT22;14521;48.148;-1.656;2023-03-14T13:13:35;18.00;66.90
26964;DHT22;14521;48.148;-1.656;2023-03-14T13:16:59;18.00;65.80
26964;DHT22;14521;48.148;-1.656;2023-03-14T13:20:42;17.90;65.30
26964;DHT22;14521;48.148;-1.656;2023-03-14T13:24:07;17.90;65.70
26964;DHT22;14521;48.148;-1.656;2023-03-14T13:27:40;17.90;65.50
26964;DHT22;14521;48.148;-1.656;2023-03-14T13:31:02;17.90;65.90
26964;DHT22;14521;48.148;-1.656;2023-03-14T13:34:26;17.90;66.70
26964;DHT22;14521;48.148;-1.656;2023-03-14T13:37:51;17.90;68.50
26964;DHT22;14521;48.148;-1.656;2023-03-14T13:41:28;18.00;68.80
26964;DHT22;14521;48.148;-1.656;2023-03-14T13:44:51;18.00;69.50
26964;DHT22;14521;48.148;-1.656;2023-03-14T13:48:14;18.00;69.50
26964;DHT22;14521;48.148;-1.656;2023-03-14T13:51:38;18.00;70.00
26964;DHT22;14521;48.148;-1.656;2023-03-14T13:55:00;18.00;69.70
26964;DHT22;14521;48.148;-1.656;2023-03-14T14:01:47;18.00;69.60
26964;DHT22;14521;48.148;-1.656;2023-03-14T14:05:10;18.10;70.00
26964;DHT22;14521;48.148;-1.656;2023-03-14T14:08:33;18.10;69.70
26964;DHT22;14521;48.148;-1.656;2023-03-14T14:15:39;18.20;70.20
26964;DHT22;14521;48.148;-1.656;2023-03-14T14:19:03;18.20;70.80
26964;DHT22;14521;48.148;-1.656;2023-03-14T14:22:25;18.20;70.10
26964;DHT22;14521;48.148;-1.656;2023-03-14T14:25:48;18.20;70.00
26964;DHT22;14521;48.148;-1.656;2023-03-14T14:29:16;18.20;69.80
26964;DHT22;14521;48.148;-1.656;2023-03-14T14:32:41;18.20;69.50
26964;DHT22;14521;48.148;-1.656;2023-03-14T14:36:04;18.20;69.80
26964;DHT22;14521;48.148;-1.656;2023-03-14T14:39:26;18.20;70.70
26964;DHT22;14521;48.148;-1.656;2023-03-14T14:42:50;18.30;70.30
26964;DHT22;14521;48.148;-1.656;2023-03-14T14:46:15;18.30;70.80
26964;DHT22;14521;48.148;-1.656;2023-03-14T14:49:38;18.30;70.50
26964;DHT22;14521;48.148;-1.656;2023-03-14T14:53:02;18.40;69.90
26964;DHT22;14521;48.148;-1.656;2023-03-14T14:56:25;18.30;69.90
26964;DHT22;14521;48.148;-1.656;2023-03-14T14:59:48;18.30;69.50
26964;DHT22;14521;48.148;-1.656;2023-03-14T15:03:14;18.30;70.30
26964;DHT22;14521;48.148;-1.656;2023-03-14T15:06:37;18.40;69.90
26964;DHT22;14521;48.148;-1.656;2023-03-14T15:10:00;18.40;69.70
26964;DHT22;14521;48.148;-1.656;2023-03-14T15:13:22;18.40;69.90
26964;DHT22;14521;48.148;-1.656;2023-03-14T15:16:44;18.40;69.30
26964;DHT22;14521;48.148;-1.656;2023-03-14T15:20:10;18.40;69.70
26964;DHT22;14521;48.148;-1.656;2023-03-14T15:23:32;18.40;69.90
26964;DHT22;14521;48.148;-1.656;2023-03-14T15:26:54;18.40;69.70
26964;DHT22;14521;48.148;-1.656;2023-03-14T15:30:17;18.40;69.20
26964;DHT22;14521;48.148;-1.656;2023-03-14T15:33:39;18.40;69.50
26964;DHT22;14521;48.148;-1.656;2023-03-14T15:37:02;18.40;69.80
26964;DHT22;14521;48.148;-1.656;2023-03-14T15:40:28;18.40;69.60
26964;DHT22;14521;48.148;-1.656;2023-03-14T15:43:51;18.40;69.20
26964;DHT22;14521;48.148;-1.656;2023-03-14T15:47:13;18.40;69.60
26964;DHT22;14521;48.148;-1.656;2023-03-14T15:50:36;18.40;69.90
26964;DHT22;14521;48.148;-1.656;2023-03-14T15:53:58;18.40;69.80
26964;DHT22;14521;48.148;-1.656;2023-03-14T15:57:20;18.40;69.80
26964;DHT22;14521;48.148;-1.656;2023-03-14T16:00:43;18.40;69.60
26964;DHT22;14521;48.148;-1.656;2023-03-14T16:04:05;18.40;69.80
26964;DHT22;14521;48.148;-1.656;2023-03-14T16:07:27;18.50;69.30
26964;DHT22;14521;48.148;-1.656;2023-03-14T16:10:49;18.50;69.20
26964;DHT22;14521;48.148;-1.656;2023-03-14T16:14:12;18.50;69.10
26964;DHT22;14521;48.148;-1.656;2023-03-14T16:17:34;18.50;69.50
26964;DHT22;14521;48.148;-1.656;2023-03-14T16:20:57;18.40;69.20
26964;DHT22;14521;48.148;-1.656;2023-03-14T16:24:20;18.40;70.00
26964;DHT22;14521;48.148;-1.656;2023-03-14T16:27:42;18.40;70.60
26964;DHT22;14521;48.148;-1.656;2023-03-14T16:31:08;18.40;69.80
26964;DHT22;14521;48.148;-1.656;2023-03-14T16:34:30;18.40;69.40
26964;DHT22;14521;48.148;-1.656;2023-03-14T16:37:53;18.40;70.80
26964;DHT22;14521;48.148;-1.656;2023-03-14T16:41:16;18.50;70.00
26964;DHT22;14521;48.148;-1.656;2023-03-14T16:44:38;18.50;69.90
26964;DHT22;14521;48.148;-1.656;2023-03-14T16:48:00;18.40;69.60
26964;DHT22;14521;48.148;-1.656;2023-03-14T16:51:23;18.40;69.30
26964;DHT22;14521;48.148;-1.656;2023-03-14T16:54:45;18.40;68.60
26964;DHT22;14521;48.148;-1.656;2023-03-14T16:58:08;18.40;69.00
26964;DHT22;14521;48.148;-1.656;2023-03-14T17:01:30;18.40;69.30
26964;DHT22;14521;48.148;-1.656;2023-03-14T17:04:52;18.40;68.40
26964;DHT22;14521;48.148;-1.656;2023-03-14T17:08:15;18.40;70.30
26964;DHT22;14521;48.148;-1.656;2023-03-14T17:11:37;18.50;71.30
26964;DHT22;14521;48.148;-1.656;2023-03-14T17:14:59;18.60;71.30
26964;DHT22;14521;48.148;-1.656;2023-03-14T17:18:22;18.70;72.60
26964;DHT22;14521;48.148;-1.656;2023-03-14T17:21:45;18.70;73.50
26964;DHT22;14521;48.148;-1.656;2023-03-14T17:25:07;18.80;73.00
26964;DHT22;14521;48.148;-1.656;2023-03-14T17:28:29;18.80;73.00
26964;DHT22;14521;48.148;-1.656;2023-03-14T17:31:52;18.80;73.60
26964;DHT22;14521;48.148;-1.656;2023-03-14T17:35:14;18.80;74.50
26964;DHT22;14521;48.148;-1.656;2023-03-14T17:38:36;18.80;74.10
26964;DHT22;14521;48.148;-1.656;2023-03-14T17:41:58;18.80;74.10
26964;DHT22;14521;48.148;-1.656;2023-03-14T17:45:21;18.80;74.30
26964;DHT22;14521;48.148;-1.656;2023-03-14T17:48:44;18.80;74.50
26964;DHT22;14521;48.148;-1.656;2023-03-14T17:52:06;18.90;74.70
26964;DHT22;14521;48.148;-1.656;2023-03-14T17:55:29;18.90;74.80
26964;DHT22;14521;48.148;-1.656;2023-03-14T17:58:52;18.90;75.00
26964;DHT22;14521;48.148;-1.656;2023-03-14T18:02:15;18.80;75.00
26964;DHT22;14521;48.148;-1.656;2023-03-14T18:05:40;18.80;75.10
26964;DHT22;14521;48.148;-1.656;2023-03-14T18:09:02;18.80;75.20
26964;DHT22;14521;48.148;-1.656;2023-03-14T18:12:27;18.80;75.50
26964;DHT22;14521;48.148;-1.656;2023-03-14T18:15:49;18.90;75.80
26964;DHT22;14521;48.148;-1.656;2023-03-14T18:19:14;18.90;76.50
26964;DHT22;14521;48.148;-1.656;2023-03-14T18:22:36;19.00;76.40
26964;DHT22;14521;48.148;-1.656;2023-03-14T18:25:59;19.00;76.90
26964;DHT22;14521;48.148;-1.656;2023-03-14T18:29:21;19.10;78.00
26964;DHT22;14521;48.148;-1.656;2023-03-14T18:32:43;19.10;78.80
26964;DHT22;14521;48.148;-1.656;2023-03-14T18:36:07;19.20;79.90
26964;DHT22;14521;48.148;-1.656;2023-03-14T18:39:29;19.20;81.40
26964;DHT22;14521;48.148;-1.656;2023-03-14T18:42:52;19.20;82.60
26964;DHT22;14521;48.148;-1.656;2023-03-14T18:46:15;19.30;83.40
26964;DHT22;14521;48.148;-1.656;2023-03-14T18:49:37;19.30;84.10
26964;DHT22;14521;48.148;-1.656;2023-03-14T18:52:59;19.40;85.20
26964;DHT22;14521;48.148;-1.656;2023-03-14T18:56:23;19.50;85.30
26964;DHT22;14521;48.148;-1.656;2023-03-14T18:59:45;19.50;85.60
26964;DHT22;14521;48.148;-1.656;2023-03-14T19:03:07;19.50;85.50
26964;DHT22;14521;48.148;-1.656;2023-03-14T19:06:29;19.50;85.30
26964;DHT22;14521;48.148;-1.656;2023-03-14T19:09:55;19.60;84.60
26964;DHT22;14521;48.148;-1.656;2023-03-14T19:13:17;19.60;84.10
26964;DHT22;14521;48.148;-1.656;2023-03-14T19:16:39;19.60;84.60
26964;DHT22;14521;48.148;-1.656;2023-03-14T19:20:01;19.60;84.10
26964;DHT22;14521;48.148;-1.656;2023-03-14T19:23:24;19.50;84.10
26964;DHT22;14521;48.148;-1.656;2023-03-14T19:26:46;19.50;84.30
26964;DHT22;14521;48.148;-1.656;2023-03-14T19:30:08;19.50;84.10
26964;DHT22;14521;48.148;-1.656;2023-03-14T19:33:31;19.50;83.80
26964;DHT22;14521;48.148;-1.656;2023-03-14T19:36:53;19.50;84.00
26964;DHT22;14521;48.148;-1.656;2023-03-14T19:40:15;19.50;84.10
26964;DHT22;14521;48.148;-1.656;2023-03-14T19:43:37;19.50;83.10
26964;DHT22;14521;48.148;-1.656;2023-03-14T19:46:59;19.40;81.10
26964;DHT22;14521;48.148;-1.656;2023-03-14T19:50:22;19.40;79.10
26964;DHT22;14521;48.148;-1.656;2023-03-14T19:53:44;19.30;80.60
26964;DHT22;14521;48.148;-1.656;2023-03-14T19:57:06;19.30;81.10
26964;DHT22;14521;48.148;-1.656;2023-03-14T20:00:28;19.30;82.70
26964;DHT22;14521;48.148;-1.656;2023-03-14T20:03:51;19.30;82.40
26964;DHT22;14521;48.148;-1.656;2023-03-14T20:07:13;19.30;83.00
26964;DHT22;14521;48.148;-1.656;2023-03-14T20:10:35;19.30;83.00
26964;DHT22;14521;48.148;-1.656;2023-03-14T20:13:58;19.30;83.10
26964;DHT22;14521;48.148;-1.656;2023-03-14T20:17:20;19.30;83.50
26964;DHT22;14521;48.148;-1.656;2023-03-14T20:20:42;19.30;83.60
26964;DHT22;14521;48.148;-1.656;2023-03-14T20:24:04;19.30;83.80
26964;DHT22;14521;48.148;-1.656;2023-03-14T20:27:27;19.30;83.90
26964;DHT22;14521;48.148;-1.656;2023-03-14T20:30:49;19.30;83.90
26964;DHT22;14521;48.148;-1.656;2023-03-14T20:34:11;19.30;83.90
26964;DHT22;14521;48.148;-1.656;2023-03-14T20:37:33;19.30;83.70
26964;DHT22;14521;48.148;-1.656;2023-03-14T20:40:56;19.30;83.90
26964;DHT22;14521;48.148;-1.656;2023-03-14T20:44:19;19.30;83.90
26964;DHT22;14521;48.148;-1.656;2023-03-14T20:47:41;19.30;83.90
26964;DHT22;14521;48.148;-1.656;2023-03-14T20:51:03;19.30;83.90
26964;DHT22;14521;48.148;-1.656;2023-03-14T20:54:26;19.30;83.60
26964;DHT22;14521;48.148;-1.656;2023-03-14T20:57:48;19.30;83.40
26964;DHT22;14521;48.148;-1.656;2023-03-14T21:01:10;19.30;83.70
26964;DHT22;14521;48.148;-1.656;2023-03-14T21:04:32;19.30;83.90
26964;DHT22;14521;48.148;-1.656;2023-03-14T21:07:54;19.30;83.10
26964;DHT22;14521;48.148;-1.656;2023-03-14T21:11:17;19.30;83.50
26964;DHT22;14521;48.148;-1.656;2023-03-14T21:14:39;19.30;83.70
26964;DHT22;14521;48.148;-1.656;2023-03-14T21:18:01;19.30;83.50
26964;DHT22;14521;48.148;-1.656;2023-03-14T21:21:26;19.30;84.00
26964;DHT22;14521;48.148;-1.656;2023-03-14T21:24:48;19.20;83.70
26964;DHT22;14521;48.148;-1.656;2023-03-14T21:28:11;19.20;83.90
26964;DHT22;14521;48.148;-1.656;2023-03-14T21:31:33;19.20;83.90
26964;DHT22;14521;48.148;-1.656;2023-03-14T21:34:56;19.20;83.70
26964;DHT22;14521;48.148;-1.656;2023-03-14T21:38:18;19.20;83.70
26964;DHT22;14521;48.148;-1.656;2023-03-14T21:41:40;19.20;83.70
26964;DHT22;14521;48.148;-1.656;2023-03-14T21:45:02;19.20;83.60
26964;DHT22;14521;48.148;-1.656;2023-03-14T21:48:25;19.20;83.60
26964;DHT22;14521;48.148;-1.656;2023-03-14T21:51:47;19.20;83.40
26964;DHT22;14521;48.148;-1.656;2023-03-14T21:55:09;19.20;83.20
26964;DHT22;14521;48.148;-1.656;2023-03-14T21:58:32;19.20;83.50
26964;DHT22;14521;48.148;-1.656;2023-03-14T22:01:56;19.20;82.80
26964;DHT22;14521;48.148;-1.656;2023-03-14T22:05:19;19.20;83.20
26964;DHT22;14521;48.148;-1.656;2023-03-14T22:08:42;19.10;83.40
26964;DHT22;14521;48.148;-1.656;2023-03-14T22:12:04;19.10;83.50